Accueil
METAR-TAF:

METAR-TAF

Aéroports :

Niamey, Niger

Aéroport international Diori Hamani

latitude: 13-29N, longitude: 002-10E, altitude: 223 m

Observation

Le bulletin a été fait il y a 32 minutes, à 03:00 UTC
Vent 4 kt de nord
Température 29°C
Humidité 13%
Pression 1009 hPa
Visibilité: 8000 m

METAR: DRRN 260300Z 35004KT 8000 NSC 29/M02 Q1009 NOSIG

Heure: 04:32 (03:32 UTC)

Prévision

Le bulletin a été fait il y a 4 heures et 32 minutes, à 23:00 UTC
Prévision valable du 26 à 00 UTC au 27 à 06 UTC
Vent 6 kt de nord/nord-est
Visibilité: 8000 m
Temporairement
du 26 à 06 UTC au 26 à 09 UTC
Visibilité: 4500 m
poussière généralisée
Temporairement
du 26 à 09 UTC au 26 à 13 UTC
Vent 18 kt de nord-est
Visibilité: 3500 m
Chasse-poussière élevée

TAF: DRRN 252300Z 2600/2706 02006KT 8000 NSC TEMPO 2606/2609 4500 DU TEMPO 2609/2613 04018KT 3500 BLDU

Observations et prévisions météorologiques de plus de 4000 aéroports (messages METAR et TAF).

Les stations disponibles sont représentées par des disques jaunes et rouges sur la carte.

Passer la souris dessus pour voir le nom de la station.

Cliquer dessus pour voir les observations et prévisions météorologiques.

Pour changer de carte: cliquez sur les boutons verts avec une croix noire pour zoomer, sur le bouton vert avec un tiret pour effectuer un zoom arrière, ou sur les flèches vertes pour les cartes adjacentes.


METAR-TAF: